sensor_id;sensor_type;location;lat;lon;timestamp;P1;durP1;ratioP1;P2;durP2;ratioP2
44440;SDS011;30146;52.268;20.944;2023-04-25T00:02:39;16.50;;;12.90;;
44440;SDS011;30146;52.268;20.944;2023-04-25T00:05:10;16.50;;;12.10;;
44440;SDS011;30146;52.268;20.944;2023-04-25T00:07:43;15.80;;;12.50;;
44440;SDS011;30146;52.268;20.944;2023-04-25T00:10:14;14.80;;;12.40;;
44440;SDS011;30146;52.268;20.944;2023-04-25T00:12:45;16.80;;;13.00;;
44440;SDS011;30146;52.268;20.944;2023-04-25T00:15:17;16.50;;;12.70;;
44440;SDS011;30146;52.268;20.944;2023-04-25T00:17:48;16.30;;;13.60;;
44440;SDS011;30146;52.268;20.944;2023-04-25T00:20:21;18.80;;;13.70;;
44440;SDS011;30146;52.268;20.944;2023-04-25T00:22:52;18.00;;;12.50;;
44440;SDS011;30146;52.268;20.944;2023-04-25T00:25:23;19.50;;;14.70;;
44440;SDS011;30146;52.268;20.944;2023-04-25T00:27:54;15.40;;;13.40;;
44440;SDS011;30146;52.268;20.944;2023-04-25T00:30:25;19.20;;;12.90;;
44440;SDS011;30146;52.268;20.944;2023-04-25T00:32:57;20.40;;;14.30;;
44440;SDS011;30146;52.268;20.944;2023-04-25T00:35:28;14.80;;;12.30;;
44440;SDS011;30146;52.268;20.944;2023-04-25T00:37:59;15.70;;;13.10;;
44440;SDS011;30146;52.268;20.944;2023-04-25T00:40:31;17.00;;;13.60;;
44440;SDS011;30146;52.268;20.944;2023-04-25T00:43:02;18.00;;;14.10;;
44440;SDS011;30146;52.268;20.944;2023-04-25T00:45:33;21.00;;;14.40;;
44440;SDS011;30146;52.268;20.944;2023-04-25T00:48:07;18.90;;;14.50;;
44440;SDS011;30146;52.268;20.944;2023-04-25T00:50:38;15.50;;;13.00;;
44440;SDS011;30146;52.268;20.944;2023-04-25T00:53:09;17.30;;;14.50;;
44440;SDS011;30146;52.268;20.944;2023-04-25T00:55:40;18.00;;;14.20;;
44440;SDS011;30146;52.268;20.944;2023-04-25T00:58:11;16.70;;;12.80;;
44440;SDS011;30146;52.268;20.944;2023-04-25T01:00:43;21.80;;;15.30;;
44440;SDS011;30146;52.268;20.944;2023-04-25T01:03:15;19.20;;;14.00;;
44440;SDS011;30146;52.268;20.944;2023-04-25T01:05:48;21.10;;;14.90;;
44440;SDS011;30146;52.268;20.944;2023-04-25T01:08:19;19.30;;;15.00;;
44440;SDS011;30146;52.268;20.944;2023-04-25T01:10:52;20.60;;;14.60;;
44440;SDS011;30146;52.268;20.944;2023-04-25T01:13:23;18.80;;;14.70;;
44440;SDS011;30146;52.268;20.944;2023-04-25T01:15:54;20.90;;;16.20;;
44440;SDS011;30146;52.268;20.944;2023-04-25T01:18:25;23.10;;;16.20;;
44440;SDS011;30146;52.268;20.944;2023-04-25T01:23:27;21.40;;;15.90;;
44440;SDS011;30146;52.268;20.944;2023-04-25T01:25:58;20.10;;;15.80;;
44440;SDS011;30146;52.268;20.944;2023-04-25T01:28:30;17.60;;;15.40;;
44440;SDS011;30146;52.268;20.944;2023-04-25T01:31:02;20.20;;;15.80;;
44440;SDS011;30146;52.268;20.944;2023-04-25T01:33:33;18.90;;;14.70;;
44440;SDS011;30146;52.268;20.944;2023-04-25T01:36:05;18.80;;;14.20;;
44440;SDS011;30146;52.268;20.944;2023-04-25T01:38:37;19.70;;;15.10;;
44440;SDS011;30146;52.268;20.944;2023-04-25T01:41:08;17.90;;;14.60;;
44440;SDS011;30146;52.268;20.944;2023-04-25T01:43:40;17.90;;;14.60;;
44440;SDS011;30146;52.268;20.944;2023-04-25T01:46:12;20.40;;;14.90;;
44440;SDS011;30146;52.268;20.944;2023-04-25T01:48:44;17.50;;;14.30;;
44440;SDS011;30146;52.268;20.944;2023-04-25T01:51:15;17.20;;;13.20;;
44440;SDS011;30146;52.268;20.944;2023-04-25T01:53:46;19.20;;;14.10;;
44440;SDS011;30146;52.268;20.944;2023-04-25T01:56:18;17.20;;;14.30;;
44440;SDS011;30146;52.268;20.944;2023-04-25T01:58:49;18.30;;;12.80;;
44440;SDS011;30146;52.268;20.944;2023-04-25T02:01:20;21.10;;;14.30;;
44440;SDS011;30146;52.268;20.944;2023-04-25T02:04:01;16.00;;;13.30;;
44440;SDS011;30146;52.268;20.944;2023-04-25T02:06:36;15.70;;;13.30;;
44440;SDS011;30146;52.268;20.944;2023-04-25T02:09:07;17.40;;;13.20;;
44440;SDS011;30146;52.268;20.944;2023-04-25T02:11:43;23.20;;;14.40;;
44440;SDS011;30146;52.268;20.944;2023-04-25T02:14:33;24.70;;;13.60;;
44440;SDS011;30146;52.268;20.944;2023-04-25T02:17:14;17.20;;;12.70;;
44440;SDS011;30146;52.268;20.944;2023-04-25T02:19:46;17.60;;;11.80;;
44440;SDS011;30146;52.268;20.944;2023-04-25T02:22:16;17.40;;;12.80;;
44440;SDS011;30146;52.268;20.944;2023-04-25T02:24:47;15.60;;;12.80;;
44440;SDS011;30146;52.268;20.944;2023-04-25T02:27:19;16.50;;;12.50;;
44440;SDS011;30146;52.268;20.944;2023-04-25T02:29:49;14.50;;;12.40;;
44440;SDS011;30146;52.268;20.944;2023-04-25T02:32:20;14.40;;;12.10;;
44440;SDS011;30146;52.268;20.944;2023-04-25T02:34:51;14.00;;;12.20;;
44440;SDS011;30146;52.268;20.944;2023-04-25T02:37:22;13.90;;;11.50;;
44440;SDS011;30146;52.268;20.944;2023-04-25T02:39:53;16.40;;;11.50;;
44440;SDS011;30146;52.268;20.944;2023-04-25T02:42:24;15.90;;;11.60;;
44440;SDS011;30146;52.268;20.944;2023-04-25T02:44:55;17.60;;;11.80;;
44440;SDS011;30146;52.268;20.944;2023-04-25T02:47:27;15.10;;;12.10;;
44440;SDS011;30146;52.268;20.944;2023-04-25T02:49:59;13.80;;;11.40;;
44440;SDS011;30146;52.268;20.944;2023-04-25T02:52:30;19.70;;;12.00;;
44440;SDS011;30146;52.268;20.944;2023-04-25T02:55:13;14.10;;;11.90;;
44440;SDS011;30146;52.268;20.944;2023-04-25T02:57:45;15.70;;;11.80;;
44440;SDS011;30146;52.268;20.944;2023-04-25T03:00:23;14.00;;;10.80;;
44440;SDS011;30146;52.268;20.944;2023-04-25T03:02:54;17.50;;;10.60;;
44440;SDS011;30146;52.268;20.944;2023-04-25T03:05:26;17.90;;;12.20;;
44440;SDS011;30146;52.268;20.944;2023-04-25T03:07:56;16.10;;;10.70;;
44440;SDS011;30146;52.268;20.944;2023-04-25T03:10:27;15.20;;;10.80;;
44440;SDS011;30146;52.268;20.944;2023-04-25T03:13:01;17.30;;;10.80;;
44440;SDS011;30146;52.268;20.944;2023-04-25T03:15:32;16.10;;;10.90;;
44440;SDS011;30146;52.268;20.944;2023-04-25T03:18:03;12.40;;;9.90;;
44440;SDS011;30146;52.268;20.944;2023-04-25T03:20:34;14.90;;;11.20;;
44440;SDS011;30146;52.268;20.944;2023-04-25T03:23:07;16.60;;;11.10;;
44440;SDS011;30146;52.268;20.944;2023-04-25T03:25:40;14.10;;;10.30;;
44440;SDS011;30146;52.268;20.944;2023-04-25T03:28:11;12.30;;;10.50;;
44440;SDS011;30146;52.268;20.944;2023-04-25T03:30:41;14.50;;;10.10;;
44440;SDS011;30146;52.268;20.944;2023-04-25T03:33:12;12.10;;;9.50;;
44440;SDS011;30146;52.268;20.944;2023-04-25T03:35:43;16.30;;;10.40;;
44440;SDS011;30146;52.268;20.944;2023-04-25T03:38:14;13.90;;;10.90;;
44440;SDS011;30146;52.268;20.944;2023-04-25T03:40:45;15.40;;;9.30;;
44440;SDS011;30146;52.268;20.944;2023-04-25T03:43:23;13.50;;;9.90;;
44440;SDS011;30146;52.268;20.944;2023-04-25T03:45:58;12.80;;;9.60;;
44440;SDS011;30146;52.268;20.944;2023-04-25T03:48:29;12.10;;;8.90;;
44440;SDS011;30146;52.268;20.944;2023-04-25T03:51:00;14.80;;;9.20;;
44440;SDS011;30146;52.268;20.944;2023-04-25T03:53:32;13.40;;;9.50;;
44440;SDS011;30146;52.268;20.944;2023-04-25T03:56:21;15.70;;;10.50;;
44440;SDS011;30146;52.268;20.944;2023-04-25T03:59:01;16.00;;;9.10;;
44440;SDS011;30146;52.268;20.944;2023-04-25T04:01:32;14.50;;;9.50;;
44440;SDS011;30146;52.268;20.944;2023-04-25T04:04:04;11.50;;;9.10;;
44440;SDS011;30146;52.268;20.944;2023-04-25T04:06:35;12.00;;;9.40;;
44440;SDS011;30146;52.268;20.944;2023-04-25T04:09:14;14.10;;;9.50;;
44440;SDS011;30146;52.268;20.944;2023-04-25T04:11:51;10.50;;;8.90;;
44440;SDS011;30146;52.268;20.944;2023-04-25T04:14:23;12.60;;;9.40;;
44440;SDS011;30146;52.268;20.944;2023-04-25T04:16:55;10.30;;;9.10;;
44440;SDS011;30146;52.268;20.944;2023-04-25T04:19:26;29.30;;;9.20;;
44440;SDS011;30146;52.268;20.944;2023-04-25T04:22:05;12.80;;;8.20;;
44440;SDS011;30146;52.268;20.944;2023-04-25T04:24:36;9.90;;;8.20;;
44440;SDS011;30146;52.268;20.944;2023-04-25T04:27:08;15.10;;;10.00;;
44440;SDS011;30146;52.268;20.944;2023-04-25T04:32:31;8.70;;;7.60;;
44440;SDS011;30146;52.268;20.944;2023-04-25T04:35:06;9.40;;;8.00;;
44440;SDS011;30146;52.268;20.944;2023-04-25T04:37:39;10.00;;;8.60;;
44440;SDS011;30146;52.268;20.944;2023-04-25T04:40:12;15.90;;;8.80;;
44440;SDS011;30146;52.268;20.944;2023-04-25T04:42:53;10.10;;;9.00;;
44440;SDS011;30146;52.268;20.944;2023-04-25T04:45:31;9.50;;;8.20;;
44440;SDS011;30146;52.268;20.944;2023-04-25T04:48:08;10.60;;;8.40;;
44440;SDS011;30146;52.268;20.944;2023-04-25T04:51:03;15.40;;;8.80;;
44440;SDS011;30146;52.268;20.944;2023-04-25T04:53:54;11.40;;;8.70;;
44440;SDS011;30146;52.268;20.944;2023-04-25T04:56:55;11.40;;;8.40;;
44440;SDS011;30146;52.268;20.944;2023-04-25T04:59:49;9.50;;;8.30;;
44440;SDS011;30146;52.268;20.944;2023-04-25T05:02:43;9.60;;;8.00;;
44440;SDS011;30146;52.268;20.944;2023-04-25T05:05:33;11.90;;;8.60;;
44440;SDS011;30146;52.268;20.944;2023-04-25T05:08:32;13.40;;;9.10;;
44440;SDS011;30146;52.268;20.944;2023-04-25T05:11:24;11.30;;;9.50;;
44440;SDS011;30146;52.268;20.944;2023-04-25T05:14:14;14.60;;;8.40;;
44440;SDS011;30146;52.268;20.944;2023-04-25T05:17:04;12.70;;;8.50;;
44440;SDS011;30146;52.268;20.944;2023-04-25T05:19:42;10.00;;;8.30;;
44440;SDS011;30146;52.268;20.944;2023-04-25T05:22:39;9.60;;;8.20;;
44440;SDS011;30146;52.268;20.944;2023-04-25T05:25:18;9.90;;;7.80;;
44440;SDS011;30146;52.268;20.944;2023-04-25T05:28:28;9.60;;;7.80;;
44440;SDS011;30146;52.268;20.944;2023-04-25T05:31:14;9.10;;;8.00;;
44440;SDS011;30146;52.268;20.944;2023-04-25T05:33:53;13.40;;;10.50;;
44440;SDS011;30146;52.268;20.944;2023-04-25T05:36:33;11.20;;;8.40;;
44440;SDS011;30146;52.268;20.944;2023-04-25T05:39:06;10.50;;;7.90;;
44440;SDS011;30146;52.268;20.944;2023-04-25T05:42:03;11.90;;;8.40;;
44440;SDS011;30146;52.268;20.944;2023-04-25T05:44:51;9.50;;;7.40;;
44440;SDS011;30146;52.268;20.944;2023-04-25T05:47:46;11.30;;;7.50;;
44440;SDS011;30146;52.268;20.944;2023-04-25T05:50:24;7.40;;;6.40;;
44440;SDS011;30146;52.268;20.944;2023-04-25T05:53:00;7.60;;;6.70;;
44440;SDS011;30146;52.268;20.944;2023-04-25T05:55:42;8.40;;;7.20;;
44440;SDS011;30146;52.268;20.944;2023-04-25T05:58:22;9.80;;;7.90;;
44440;SDS011;30146;52.268;20.944;2023-04-25T06:00:54;8.90;;;7.80;;
44440;SDS011;30146;52.268;20.944;2023-04-25T06:03:26;9.20;;;7.60;;
44440;SDS011;30146;52.268;20.944;2023-04-25T06:05:58;9.70;;;8.20;;
44440;SDS011;30146;52.268;20.944;2023-04-25T06:08:30;9.10;;;8.10;;
44440;SDS011;30146;52.268;20.944;2023-04-25T06:11:06;8.80;;;8.00;;
44440;SDS011;30146;52.268;20.944;2023-04-25T06:13:37;10.10;;;8.20;;
44440;SDS011;30146;52.268;20.944;2023-04-25T06:16:08;10.20;;;8.40;;
44440;SDS011;30146;52.268;20.944;2023-04-25T06:18:40;11.40;;;8.50;;
44440;SDS011;30146;52.268;20.944;2023-04-25T06:21:11;9.80;;;8.60;;
44440;SDS011;30146;52.268;20.944;2023-04-25T06:23:45;13.20;;;8.30;;
44440;SDS011;30146;52.268;20.944;2023-04-25T06:26:21;9.40;;;8.50;;
44440;SDS011;30146;52.268;20.944;2023-04-25T06:28:52;9.10;;;8.20;;
44440;SDS011;30146;52.268;20.944;2023-04-25T06:31:23;10.10;;;9.00;;
44440;SDS011;30146;52.268;20.944;2023-04-25T06:34:03;10.10;;;9.10;;
44440;SDS011;30146;52.268;20.944;2023-04-25T06:36:36;10.20;;;9.10;;
44440;SDS011;30146;52.268;20.944;2023-04-25T06:39:15;10.60;;;8.50;;
44440;SDS011;30146;52.268;20.944;2023-04-25T06:41:49;11.60;;;9.40;;
44440;SDS011;30146;52.268;20.944;2023-04-25T06:44:40;11.90;;;9.30;;
44440;SDS011;30146;52.268;20.944;2023-04-25T06:47:12;10.00;;;8.50;;
44440;SDS011;30146;52.268;20.944;2023-04-25T06:49:43;10.10;;;8.20;;
44440;SDS011;30146;52.268;20.944;2023-04-25T06:52:17;9.90;;;7.80;;
44440;SDS011;30146;52.268;20.944;2023-04-25T06:54:49;9.50;;;7.30;;
44440;SDS011;30146;52.268;20.944;2023-04-25T06:57:31;9.30;;;6.80;;
44440;SDS011;30146;52.268;20.944;2023-04-25T07:00:18;8.60;;;6.70;;
44440;SDS011;30146;52.268;20.944;2023-04-25T07:02:54;9.70;;;7.80;;
44440;SDS011;30146;52.268;20.944;2023-04-25T07:05:26;12.20;;;8.60;;
44440;SDS011;30146;52.268;20.944;2023-04-25T07:07:58;12.50;;;8.00;;
44440;SDS011;30146;52.268;20.944;2023-04-25T07:10:30;10.30;;;7.80;;
44440;SDS011;30146;52.268;20.944;2023-04-25T07:13:02;9.40;;;8.20;;
44440;SDS011;30146;52.268;20.944;2023-04-25T07:15:33;8.00;;;6.70;;
44440;SDS011;30146;52.268;20.944;2023-04-25T07:18:12;9.20;;;6.50;;
44440;SDS011;30146;52.268;20.944;2023-04-25T07:20:44;15.50;;;7.50;;
44440;SDS011;30146;52.268;20.944;2023-04-25T07:23:14;9.10;;;6.50;;
44440;SDS011;30146;52.268;20.944;2023-04-25T07:25:46;7.50;;;6.70;;
44440;SDS011;30146;52.268;20.944;2023-04-25T07:28:25;8.30;;;6.20;;
44440;SDS011;30146;52.268;20.944;2023-04-25T07:30:56;8.50;;;6.20;;
44440;SDS011;30146;52.268;20.944;2023-04-25T07:33:27;7.60;;;6.50;;
44440;SDS011;30146;52.268;20.944;2023-04-25T07:35:58;6.50;;;5.80;;
44440;SDS011;30146;52.268;20.944;2023-04-25T07:38:33;8.10;;;5.80;;
44440;SDS011;30146;52.268;20.944;2023-04-25T07:43:57;13.20;;;6.40;;
44440;SDS011;30146;52.268;20.944;2023-04-25T07:46:28;9.20;;;6.00;;
44440;SDS011;30146;52.268;20.944;2023-04-25T07:48:59;9.90;;;6.10;;
44440;SDS011;30146;52.268;20.944;2023-04-25T07:51:30;6.70;;;5.90;;
44440;SDS011;30146;52.268;20.944;2023-04-25T07:54:06;7.00;;;6.00;;
44440;SDS011;30146;52.268;20.944;2023-04-25T07:56:39;5.70;;;5.20;;
44440;SDS011;30146;52.268;20.944;2023-04-25T07:59:23;7.30;;;6.40;;
44440;SDS011;30146;52.268;20.944;2023-04-25T08:01:57;7.80;;;7.10;;
44440;SDS011;30146;52.268;20.944;2023-04-25T08:04:29;8.20;;;7.00;;
44440;SDS011;30146;52.268;20.944;2023-04-25T08:07:04;8.40;;;7.50;;
44440;SDS011;30146;52.268;20.944;2023-04-25T08:09:41;9.40;;;8.50;;
44440;SDS011;30146;52.268;20.944;2023-04-25T08:12:18;9.00;;;8.20;;
44440;SDS011;30146;52.268;20.944;2023-04-25T08:14:51;10.10;;;8.40;;
44440;SDS011;30146;52.268;20.944;2023-04-25T08:17:24;9.30;;;8.40;;
44440;SDS011;30146;52.268;20.944;2023-04-25T08:19:55;9.20;;;8.30;;
44440;SDS011;30146;52.268;20.944;2023-04-25T08:22:29;9.40;;;7.80;;
44440;SDS011;30146;52.268;20.944;2023-04-25T08:25:37;9.80;;;7.70;;
44440;SDS011;30146;52.268;20.944;2023-04-25T08:28:11;7.60;;;6.80;;
44440;SDS011;30146;52.268;20.944;2023-04-25T08:30:43;9.50;;;6.70;;
44440;SDS011;30146;52.268;20.944;2023-04-25T08:33:17;11.00;;;6.70;;
44440;SDS011;30146;52.268;20.944;2023-04-25T08:36:13;7.40;;;6.50;;
44440;SDS011;30146;52.268;20.944;2023-04-25T08:39:07;7.60;;;6.90;;
44440;SDS011;30146;52.268;20.944;2023-04-25T08:41:44;6.90;;;6.20;;
44440;SDS011;30146;52.268;20.944;2023-04-25T08:44:16;7.30;;;5.90;;
44440;SDS011;30146;52.268;20.944;2023-04-25T08:46:48;6.60;;;5.90;;
44440;SDS011;30146;52.268;20.944;2023-04-25T08:49:32;8.70;;;5.80;;
44440;SDS011;30146;52.268;20.944;2023-04-25T08:52:04;21.30;;;15.40;;
44440;SDS011;30146;52.268;20.944;2023-04-25T08:57:14;14.10;;;7.00;;
44440;SDS011;30146;52.268;20.944;2023-04-25T08:59:47;9.40;;;5.50;;
44440;SDS011;30146;52.268;20.944;2023-04-25T09:02:18;11.70;;;4.80;;
44440;SDS011;30146;52.268;20.944;2023-04-25T09:04:50;7.40;;;4.30;;
44440;SDS011;30146;52.268;20.944;2023-04-25T09:07:23;5.30;;;4.20;;
44440;SDS011;30146;52.268;20.944;2023-04-25T09:09:54;7.20;;;5.00;;
44440;SDS011;30146;52.268;20.944;2023-04-25T09:12:28;5.50;;;4.80;;
44440;SDS011;30146;52.268;20.944;2023-04-25T09:15:05;6.40;;;5.80;;
44440;SDS011;30146;52.268;20.944;2023-04-25T09:17:57;7.90;;;5.40;;
44440;SDS011;30146;52.268;20.944;2023-04-25T09:20:34;5.70;;;5.20;;
44440;SDS011;30146;52.268;20.944;2023-04-25T09:23:30;7.50;;;6.80;;
44440;SDS011;30146;52.268;20.944;2023-04-25T09:26:20;7.40;;;6.60;;
44440;SDS011;30146;52.268;20.944;2023-04-25T09:29:05;8.00;;;7.00;;
44440;SDS011;30146;52.268;20.944;2023-04-25T09:31:39;12.50;;;7.20;;
44440;SDS011;30146;52.268;20.944;2023-04-25T09:34:15;8.10;;;6.80;;
44440;SDS011;30146;52.268;20.944;2023-04-25T09:36:52;8.90;;;8.00;;
44440;SDS011;30146;52.268;20.944;2023-04-25T09:39:52;8.10;;;7.40;;
44440;SDS011;30146;52.268;20.944;2023-04-25T09:42:26;8.80;;;7.30;;
44440;SDS011;30146;52.268;20.944;2023-04-25T09:45:00;9.30;;;8.30;;
44440;SDS011;30146;52.268;20.944;2023-04-25T09:47:36;10.50;;;8.30;;
44440;SDS011;30146;52.268;20.944;2023-04-25T09:50:15;10.00;;;8.50;;
44440;SDS011;30146;52.268;20.944;2023-04-25T09:53:03;10.50;;;9.10;;
44440;SDS011;30146;52.268;20.944;2023-04-25T09:55:54;9.20;;;8.30;;
44440;SDS011;30146;52.268;20.944;2023-04-25T09:58:28;12.00;;;9.20;;
44440;SDS011;30146;52.268;20.944;2023-04-25T10:01:02;11.00;;;9.40;;
44440;SDS011;30146;52.268;20.944;2023-04-25T10:04:04;9.90;;;8.90;;
44440;SDS011;30146;52.268;20.944;2023-04-25T10:06:50;12.40;;;9.60;;
44440;SDS011;30146;52.268;20.944;2023-04-25T10:09:24;11.90;;;10.10;;
44440;SDS011;30146;52.268;20.944;2023-04-25T10:12:00;13.30;;;10.50;;
44440;SDS011;30146;52.268;20.944;2023-04-25T10:14:32;12.80;;;11.50;;
44440;SDS011;30146;52.268;20.944;2023-04-25T10:17:04;13.90;;;11.40;;
44440;SDS011;30146;52.268;20.944;2023-04-25T10:19:38;12.20;;;11.00;;
44440;SDS011;30146;52.268;20.944;2023-04-25T10:22:11;12.60;;;11.10;;
44440;SDS011;30146;52.268;20.944;2023-04-25T10:24:46;12.40;;;11.20;;
44440;SDS011;30146;52.268;20.944;2023-04-25T10:27:18;11.90;;;10.20;;
44440;SDS011;30146;52.268;20.944;2023-04-25T10:30:01;11.20;;;9.70;;
44440;SDS011;30146;52.268;20.944;2023-04-25T10:32:34;11.60;;;10.50;;
44440;SDS011;30146;52.268;20.944;2023-04-25T10:35:16;12.00;;;10.80;;
44440;SDS011;30146;52.268;20.944;2023-04-25T10:38:02;13.50;;;10.30;;
44440;SDS011;30146;52.268;20.944;2023-04-25T10:40:38;13.60;;;10.30;;
44440;SDS011;30146;52.268;20.944;2023-04-25T10:46:04;11.70;;;9.90;;
44440;SDS011;30146;52.268;20.944;2023-04-25T10:48:50;15.40;;;11.00;;
44440;SDS011;30146;52.268;20.944;2023-04-25T10:51:26;12.40;;;10.30;;
44440;SDS011;30146;52.268;20.944;2023-04-25T10:54:18;10.90;;;9.80;;
44440;SDS011;30146;52.268;20.944;2023-04-25T10:56:53;11.70;;;10.60;;
44440;SDS011;30146;52.268;20.944;2023-04-25T10:59:28;11.50;;;10.50;;
44440;SDS011;30146;52.268;20.944;2023-04-25T11:02:01;16.40;;;11.30;;
44440;SDS011;30146;52.268;20.944;2023-04-25T11:04:42;12.80;;;11.60;;
44440;SDS011;30146;52.268;20.944;2023-04-25T11:07:22;14.00;;;12.70;;
44440;SDS011;30146;52.268;20.944;2023-04-25T11:10:03;12.60;;;11.40;;
44440;SDS011;30146;52.268;20.944;2023-04-25T11:12:38;13.20;;;11.80;;
44440;SDS011;30146;52.268;20.944;2023-04-25T11:15:10;12.10;;;10.80;;
44440;SDS011;30146;52.268;20.944;2023-04-25T11:17:41;11.70;;;10.60;;
44440;SDS011;30146;52.268;20.944;2023-04-25T11:20:14;11.80;;;10.70;;
44440;SDS011;30146;52.268;20.944;2023-04-25T11:22:48;11.00;;;10.00;;
44440;SDS011;30146;52.268;20.944;2023-04-25T11:25:20;10.60;;;9.50;;
44440;SDS011;30146;52.268;20.944;2023-04-25T11:27:58;10.20;;;9.20;;
44440;SDS011;30146;52.268;20.944;2023-04-25T11:30:37;9.90;;;9.00;;
44440;SDS011;30146;52.268;20.944;2023-04-25T11:33:08;10.80;;;8.80;;
44440;SDS011;30146;52.268;20.944;2023-04-25T11:35:41;9.50;;;8.40;;
44440;SDS011;30146;52.268;20.944;2023-04-25T11:38:12;9.40;;;8.50;;
44440;SDS011;30146;52.268;20.944;2023-04-25T11:40:43;9.20;;;8.30;;
44440;SDS011;30146;52.268;20.944;2023-04-25T11:43:18;9.50;;;8.70;;
44440;SDS011;30146;52.268;20.944;2023-04-25T11:45:52;9.60;;;8.00;;
44440;SDS011;30146;52.268;20.944;2023-04-25T11:48:25;9.70;;;8.70;;
44440;SDS011;30146;52.268;20.944;2023-04-25T11:50:56;14.40;;;10.10;;
44440;SDS011;30146;52.268;20.944;2023-04-25T11:53:29;8.70;;;7.30;;
44440;SDS011;30146;52.268;20.944;2023-04-25T11:56:05;10.10;;;7.50;;
44440;SDS011;30146;52.268;20.944;2023-04-25T11:58:56;12.80;;;8.10;;
44440;SDS011;30146;52.268;20.944;2023-04-25T12:01:30;9.70;;;7.80;;
44440;SDS011;30146;52.268;20.944;2023-04-25T12:04:11;10.30;;;8.90;;
44440;SDS011;30146;52.268;20.944;2023-04-25T12:06:44;9.20;;;8.20;;
44440;SDS011;30146;52.268;20.944;2023-04-25T12:09:17;10.20;;;7.20;;
44440;SDS011;30146;52.268;20.944;2023-04-25T12:11:54;7.20;;;6.50;;
44440;SDS011;30146;52.268;20.944;2023-04-25T12:14:26;8.90;;;6.10;;
44440;SDS011;30146;52.268;20.944;2023-04-25T12:16:58;8.70;;;6.60;;
44440;SDS011;30146;52.268;20.944;2023-04-25T12:19:33;7.40;;;5.70;;
44440;SDS011;30146;52.268;20.944;2023-04-25T12:22:19;9.80;;;5.50;;
44440;SDS011;30146;52.268;20.944;2023-04-25T12:24:53;5.60;;;5.10;;
44440;SDS011;30146;52.268;20.944;2023-04-25T12:27:26;13.00;;;5.70;;
44440;SDS011;30146;52.268;20.944;2023-04-25T12:29:57;5.40;;;4.80;;
44440;SDS011;30146;52.268;20.944;2023-04-25T12:32:28;7.10;;;4.80;;
44440;SDS011;30146;52.268;20.944;2023-04-25T12:34:59;6.60;;;5.30;;
44440;SDS011;30146;52.268;20.944;2023-04-25T12:37:30;6.40;;;5.10;;
44440;SDS011;30146;52.268;20.944;2023-04-25T12:40:01;6.80;;;5.00;;
44440;SDS011;30146;52.268;20.944;2023-04-25T12:42:34;6.00;;;5.40;;
44440;SDS011;30146;52.268;20.944;2023-04-25T12:45:06;6.60;;;4.70;;
44440;SDS011;30146;52.268;20.944;2023-04-25T12:47:37;7.80;;;6.00;;
44440;SDS011;30146;52.268;20.944;2023-04-25T12:50:09;6.90;;;5.40;;
44440;SDS011;30146;52.268;20.944;2023-04-25T12:52:40;6.10;;;5.00;;
44440;SDS011;30146;52.268;20.944;2023-04-25T12:55:11;6.10;;;5.00;;
44440;SDS011;30146;52.268;20.944;2023-04-25T12:57:43;6.70;;;5.20;;
44440;SDS011;30146;52.268;20.944;2023-04-25T13:00:15;7.30;;;5.30;;
44440;SDS011;30146;52.268;20.944;2023-04-25T13:02:47;7.00;;;5.10;;
44440;SDS011;30146;52.268;20.944;2023-04-25T13:05:19;7.50;;;4.90;;
44440;SDS011;30146;52.268;20.944;2023-04-25T13:07:50;5.50;;;5.00;;
44440;SDS011;30146;52.268;20.944;2023-04-25T13:10:21;7.90;;;5.40;;
44440;SDS011;30146;52.268;20.944;2023-04-25T13:12:53;6.30;;;5.30;;
44440;SDS011;30146;52.268;20.944;2023-04-25T13:15:23;6.90;;;5.10;;
44440;SDS011;30146;52.268;20.944;2023-04-25T13:17:54;5.60;;;5.00;;
44440;SDS011;30146;52.268;20.944;2023-04-25T13:20:25;7.60;;;5.40;;
44440;SDS011;30146;52.268;20.944;2023-04-25T13:22:56;5.10;;;4.30;;
44440;SDS011;30146;52.268;20.944;2023-04-25T13:25:29;9.10;;;6.20;;
44440;SDS011;30146;52.268;20.944;2023-04-25T13:28:01;5.50;;;5.00;;
44440;SDS011;30146;52.268;20.944;2023-04-25T13:30:32;9.60;;;7.10;;
44440;SDS011;30146;52.268;20.944;2023-04-25T13:33:03;6.30;;;5.20;;
44440;SDS011;30146;52.268;20.944;2023-04-25T13:35:35;6.60;;;5.10;;
44440;SDS011;30146;52.268;20.944;2023-04-25T13:38:06;6.70;;;5.00;;
44440;SDS011;30146;52.268;20.944;2023-04-25T13:40:38;7.10;;;4.80;;
44440;SDS011;30146;52.268;20.944;2023-04-25T13:43:08;5.90;;;4.50;;
44440;SDS011;30146;52.268;20.944;2023-04-25T13:45:39;5.60;;;4.70;;
44440;SDS011;30146;52.268;20.944;2023-04-25T13:48:10;5.10;;;4.60;;
44440;SDS011;30146;52.268;20.944;2023-04-25T13:50:41;8.20;;;4.70;;
44440;SDS011;30146;52.268;20.944;2023-04-25T13:53:11;5.60;;;4.30;;
44440;SDS011;30146;52.268;20.944;2023-04-25T13:55:42;6.80;;;4.20;;
44440;SDS011;30146;52.268;20.944;2023-04-25T13:58:13;7.60;;;4.70;;
44440;SDS011;30146;52.268;20.944;2023-04-25T14:00:44;6.30;;;4.20;;
44440;SDS011;30146;52.268;20.944;2023-04-25T14:03:15;7.20;;;4.10;;
44440;SDS011;30146;52.268;20.944;2023-04-25T14:05:45;4.90;;;4.40;;
44440;SDS011;30146;52.268;20.944;2023-04-25T14:08:17;8.10;;;4.40;;
44440;SDS011;30146;52.268;20.944;2023-04-25T14:10:47;5.40;;;4.20;;
44440;SDS011;30146;52.268;20.944;2023-04-25T14:13:18;6.30;;;4.10;;
44440;SDS011;30146;52.268;20.944;2023-04-25T14:15:49;4.00;;;3.70;;
44440;SDS011;30146;52.268;20.944;2023-04-25T14:18:31;6.00;;;4.00;;
44440;SDS011;30146;52.268;20.944;2023-04-25T14:21:02;4.90;;;3.90;;
44440;SDS011;30146;52.268;20.944;2023-04-25T14:23:42;5.40;;;3.80;;
44440;SDS011;30146;52.268;20.944;2023-04-25T14:26:14;6.00;;;3.90;;
44440;SDS011;30146;52.268;20.944;2023-04-25T14:28:45;4.30;;;3.60;;
44440;SDS011;30146;52.268;20.944;2023-04-25T14:31:17;5.40;;;4.00;;
44440;SDS011;30146;52.268;20.944;2023-04-25T14:33:51;4.60;;;3.80;;
44440;SDS011;30146;52.268;20.944;2023-04-25T14:36:26;6.10;;;3.90;;
44440;SDS011;30146;52.268;20.944;2023-04-25T14:38:59;5.20;;;4.10;;
44440;SDS011;30146;52.268;20.944;2023-04-25T14:41:31;14.70;;;9.60;;
44440;SDS011;30146;52.268;20.944;2023-04-25T14:44:10;7.70;;;5.80;;
44440;SDS011;30146;52.268;20.944;2023-04-25T14:46:49;6.50;;;4.90;;
44440;SDS011;30146;52.268;20.944;2023-04-25T14:49:23;5.80;;;4.60;;
44440;SDS011;30146;52.268;20.944;2023-04-25T14:51:54;5.50;;;4.90;;
44440;SDS011;30146;52.268;20.944;2023-04-25T14:54:26;5.20;;;4.60;;
44440;SDS011;30146;52.268;20.944;2023-04-25T14:56:57;6.50;;;4.90;;
44440;SDS011;30146;52.268;20.944;2023-04-25T14:59:31;6.70;;;4.70;;
44440;SDS011;30146;52.268;20.944;2023-04-25T15:02:06;7.50;;;4.70;;
44440;SDS011;30146;52.268;20.944;2023-04-25T15:04:37;10.90;;;4.80;;
44440;SDS011;30146;52.268;20.944;2023-04-25T15:07:08;6.10;;;4.60;;
44440;SDS011;30146;52.268;20.944;2023-04-25T15:09:39;5.60;;;5.00;;
44440;SDS011;30146;52.268;20.944;2023-04-25T15:12:15;5.60;;;4.90;;
44440;SDS011;30146;52.268;20.944;2023-04-25T15:14:46;5.90;;;4.90;;
44440;SDS011;30146;52.268;20.944;2023-04-25T15:17:17;5.50;;;4.80;;
44440;SDS011;30146;52.268;20.944;2023-04-25T15:19:48;8.50;;;5.00;;
44440;SDS011;30146;52.268;20.944;2023-04-25T15:22:19;6.90;;;4.90;;
44440;SDS011;30146;52.268;20.944;2023-04-25T15:24:50;7.00;;;5.10;;